sensor_id;sensor_type;location;lat;lon;timestamp;temperature;humidity
16038;DHT22;8123;50.906;6.172;2023-10-13T00:01:18;18.10;99.90
16038;DHT22;8123;50.906;6.172;2023-10-13T00:03:44;18.10;99.90
16038;DHT22;8123;50.906;6.172;2023-10-13T00:06:10;18.10;99.90
16038;DHT22;8123;50.906;6.172;2023-10-13T00:08:36;18.10;99.90
16038;DHT22;8123;50.906;6.172;2023-10-13T00:11:05;18.00;99.90
16038;DHT22;8123;50.906;6.172;2023-10-13T00:13:31;18.00;99.90
16038;DHT22;8123;50.906;6.172;2023-10-13T00:16:18;18.00;99.90
16038;DHT22;8123;50.906;6.172;2023-10-13T00:18:50;18.00;99.90
16038;DHT22;8123;50.906;6.172;2023-10-13T00:21:20;18.00;99.90
16038;DHT22;8123;50.906;6.172;2023-10-13T00:23:57;18.00;99.90
16038;DHT22;8123;50.906;6.172;2023-10-13T00:26:24;18.00;99.90
16038;DHT22;8123;50.906;6.172;2023-10-13T00:28:58;18.00;99.90
16038;DHT22;8123;50.906;6.172;2023-10-13T00:31:33;18.10;99.90
16038;DHT22;8123;50.906;6.172;2023-10-13T00:34:01;18.10;99.90
16038;DHT22;8123;50.906;6.172;2023-10-13T00:36:38;18.10;99.90
16038;DHT22;8123;50.906;6.172;2023-10-13T00:39:14;18.10;99.90
16038;DHT22;8123;50.906;6.172;2023-10-13T00:41:44;18.10;99.90
16038;DHT22;8123;50.906;6.172;2023-10-13T00:44:23;18.10;99.90
16038;DHT22;8123;50.906;6.172;2023-10-13T00:47:04;18.10;99.90
16038;DHT22;8123;50.906;6.172;2023-10-13T00:49:33;18.10;99.90
16038;DHT22;8123;50.906;6.172;2023-10-13T00:52:07;18.10;99.90
16038;DHT22;8123;50.906;6.172;2023-10-13T00:54:36;18.10;99.90
16038;DHT22;8123;50.906;6.172;2023-10-13T00:57:03;18.10;99.90
16038;DHT22;8123;50.906;6.172;2023-10-13T00:59:32;18.10;99.90
16038;DHT22;8123;50.906;6.172;2023-10-13T01:02:02;18.10;99.90
16038;DHT22;8123;50.906;6.172;2023-10-13T01:04:48;18.00;99.90
16038;DHT22;8123;50.906;6.172;2023-10-13T01:07:14;18.10;99.90
16038;DHT22;8123;50.906;6.172;2023-10-13T01:09:42;18.10;99.90
16038;DHT22;8123;50.906;6.172;2023-10-13T01:12:08;18.10;99.90
16038;DHT22;8123;50.906;6.172;2023-10-13T01:14:34;18.10;99.90
16038;DHT22;8123;50.906;6.172;2023-10-13T01:17:01;18.10;99.90
16038;DHT22;8123;50.906;6.172;2023-10-13T01:19:27;18.10;99.90
16038;DHT22;8123;50.906;6.172;2023-10-13T01:21:53;18.00;99.90
16038;DHT22;8123;50.906;6.172;2023-10-13T01:24:25;18.00;99.90
16038;DHT22;8123;50.906;6.172;2023-10-13T01:26:57;18.00;99.90
16038;DHT22;8123;50.906;6.172;2023-10-13T01:29:23;18.00;99.90
16038;DHT22;8123;50.906;6.172;2023-10-13T01:31:54;18.00;99.90
16038;DHT22;8123;50.906;6.172;2023-10-13T01:34:20;18.00;99.90
16038;DHT22;8123;50.906;6.172;2023-10-13T01:36:49;18.00;99.90
16038;DHT22;8123;50.906;6.172;2023-10-13T01:39:23;18.00;99.90
16038;DHT22;8123;50.906;6.172;2023-10-13T01:41:52;18.00;99.90
16038;DHT22;8123;50.906;6.172;2023-10-13T01:44:24;18.00;99.90
16038;DHT22;8123;50.906;6.172;2023-10-13T01:47:00;18.00;99.90
16038;DHT22;8123;50.906;6.172;2023-10-13T01:49:35;18.00;99.90
16038;DHT22;8123;50.906;6.172;2023-10-13T01:52:07;18.00;99.90
16038;DHT22;8123;50.906;6.172;2023-10-13T01:54:33;18.00;99.90
16038;DHT22;8123;50.906;6.172;2023-10-13T01:56:59;18.00;99.90
16038;DHT22;8123;50.906;6.172;2023-10-13T01:59:25;17.90;99.90
16038;DHT22;8123;50.906;6.172;2023-10-13T02:01:52;18.00;99.90
16038;DHT22;8123;50.906;6.172;2023-10-13T02:04:21;18.00;99.90
16038;DHT22;8123;50.906;6.172;2023-10-13T02:06:46;18.00;99.90
16038;DHT22;8123;50.906;6.172;2023-10-13T02:09:12;18.00;99.90
16038;DHT22;8123;50.906;6.172;2023-10-13T02:11:54;18.00;99.90
16038;DHT22;8123;50.906;6.172;2023-10-13T02:14:23;18.00;99.90
16038;DHT22;8123;50.906;6.172;2023-10-13T02:16:51;18.00;99.90
16038;DHT22;8123;50.906;6.172;2023-10-13T02:19:21;18.00;99.90
16038;DHT22;8123;50.906;6.172;2023-10-13T02:21:47;18.00;99.90
16038;DHT22;8123;50.906;6.172;2023-10-13T02:24:24;18.00;99.90
16038;DHT22;8123;50.906;6.172;2023-10-13T02:26:58;18.00;99.90
16038;DHT22;8123;50.906;6.172;2023-10-13T02:29:30;18.00;99.90
16038;DHT22;8123;50.906;6.172;2023-10-13T02:31:56;18.00;99.90
16038;DHT22;8123;50.906;6.172;2023-10-13T02:34:22;18.00;99.90
16038;DHT22;8123;50.906;6.172;2023-10-13T02:36:49;18.10;99.90
16038;DHT22;8123;50.906;6.172;2023-10-13T02:39:18;18.10;99.90
16038;DHT22;8123;50.906;6.172;2023-10-13T02:41:51;18.10;99.90
16038;DHT22;8123;50.906;6.172;2023-10-13T02:44:18;18.10;99.90
16038;DHT22;8123;50.906;6.172;2023-10-13T02:46:56;18.10;99.90
16038;DHT22;8123;50.906;6.172;2023-10-13T02:49:25;18.20;99.90
16038;DHT22;8123;50.906;6.172;2023-10-13T02:51:52;18.20;99.90
16038;DHT22;8123;50.906;6.172;2023-10-13T02:54:18;18.20;99.90
16038;DHT22;8123;50.906;6.172;2023-10-13T02:56:45;18.20;99.90
16038;DHT22;8123;50.906;6.172;2023-10-13T02:59:28;18.10;99.90
16038;DHT22;8123;50.906;6.172;2023-10-13T03:02:03;18.20;99.90
16038;DHT22;8123;50.906;6.172;2023-10-13T03:04:48;18.20;99.90
16038;DHT22;8123;50.906;6.172;2023-10-13T03:07:14;18.20;99.90
16038;DHT22;8123;50.906;6.172;2023-10-13T03:09:49;18.20;99.90
16038;DHT22;8123;50.906;6.172;2023-10-13T03:12:21;18.20;99.90
16038;DHT22;8123;50.906;6.172;2023-10-13T03:14:49;18.20;99.90
16038;DHT22;8123;50.906;6.172;2023-10-13T03:17:15;18.30;99.90
16038;DHT22;8123;50.906;6.172;2023-10-13T03:19:46;18.30;99.90
16038;DHT22;8123;50.906;6.172;2023-10-13T03:22:15;18.30;99.90
16038;DHT22;8123;50.906;6.172;2023-10-13T03:24:43;18.30;99.90
16038;DHT22;8123;50.906;6.172;2023-10-13T03:27:17;18.30;99.90
16038;DHT22;8123;50.906;6.172;2023-10-13T03:29:44;18.30;99.90
16038;DHT22;8123;50.906;6.172;2023-10-13T03:32:16;18.30;99.90
16038;DHT22;8123;50.906;6.172;2023-10-13T03:34:43;18.30;99.90
16038;DHT22;8123;50.906;6.172;2023-10-13T03:37:35;18.30;99.90
16038;DHT22;8123;50.906;6.172;2023-10-13T03:40:05;18.30;99.90
16038;DHT22;8123;50.906;6.172;2023-10-13T03:42:46;18.30;99.90
16038;DHT22;8123;50.906;6.172;2023-10-13T03:45:26;18.30;99.90
16038;DHT22;8123;50.906;6.172;2023-10-13T03:47:52;18.40;99.90
16038;DHT22;8123;50.906;6.172;2023-10-13T03:50:21;18.40;99.90
16038;DHT22;8123;50.906;6.172;2023-10-13T03:52:58;18.40;99.90
16038;DHT22;8123;50.906;6.172;2023-10-13T03:55:25;18.40;99.90
16038;DHT22;8123;50.906;6.172;2023-10-13T03:57:53;18.40;99.90
16038;DHT22;8123;50.906;6.172;2023-10-13T04:00:20;18.40;99.90
16038;DHT22;8123;50.906;6.172;2023-10-13T04:02:54;18.40;99.90
16038;DHT22;8123;50.906;6.172;2023-10-13T04:05:32;18.40;99.90
16038;DHT22;8123;50.906;6.172;2023-10-13T04:08:26;18.40;99.90
16038;DHT22;8123;50.906;6.172;2023-10-13T04:10:56;18.40;99.90
16038;DHT22;8123;50.906;6.172;2023-10-13T04:13:22;18.30;99.90
16038;DHT22;8123;50.906;6.172;2023-10-13T04:16:08;18.30;99.90
16038;DHT22;8123;50.906;6.172;2023-10-13T04:18:49;18.30;99.90
16038;DHT22;8123;50.906;6.172;2023-10-13T04:21:24;18.30;99.90
16038;DHT22;8123;50.906;6.172;2023-10-13T04:24:10;18.40;99.90
16038;DHT22;8123;50.906;6.172;2023-10-13T04:26:49;18.30;99.90
16038;DHT22;8123;50.906;6.172;2023-10-13T04:29:34;18.40;99.90
16038;DHT22;8123;50.906;6.172;2023-10-13T04:32:18;18.40;99.90
16038;DHT22;8123;50.906;6.172;2023-10-13T04:34:57;18.40;99.90
16038;DHT22;8123;50.906;6.172;2023-10-13T04:37:46;18.40;99.90
16038;DHT22;8123;50.906;6.172;2023-10-13T04:40:26;18.40;99.90
16038;DHT22;8123;50.906;6.172;2023-10-13T04:42:54;18.40;99.90
16038;DHT22;8123;50.906;6.172;2023-10-13T04:45:23;18.40;99.90
16038;DHT22;8123;50.906;6.172;2023-10-13T04:47:59;18.50;99.90
16038;DHT22;8123;50.906;6.172;2023-10-13T04:50:59;18.50;99.90
16038;DHT22;8123;50.906;6.172;2023-10-13T04:53:45;18.50;99.90
16038;DHT22;8123;50.906;6.172;2023-10-13T04:56:30;18.60;99.90
16038;DHT22;8123;50.906;6.172;2023-10-13T04:59:07;18.60;99.90
16038;DHT22;8123;50.906;6.172;2023-10-13T05:01:52;18.50;99.90
16038;DHT22;8123;50.906;6.172;2023-10-13T05:04:47;18.50;99.90
16038;DHT22;8123;50.906;6.172;2023-10-13T05:07:31;18.50;99.90
16038;DHT22;8123;50.906;6.172;2023-10-13T05:10:16;18.50;99.90
16038;DHT22;8123;50.906;6.172;2023-10-13T05:13:00;18.40;99.90
16038;DHT22;8123;50.906;6.172;2023-10-13T05:15:47;18.40;99.90
16038;DHT22;8123;50.906;6.172;2023-10-13T05:18:32;18.60;99.90
16038;DHT22;8123;50.906;6.172;2023-10-13T05:21:17;18.40;99.90
16038;DHT22;8123;50.906;6.172;2023-10-13T05:24:01;18.40;99.90
16038;DHT22;8123;50.906;6.172;2023-10-13T05:26:45;18.40;99.90
16038;DHT22;8123;50.906;6.172;2023-10-13T05:29:29;18.40;99.90
16038;DHT22;8123;50.906;6.172;2023-10-13T05:32:13;18.40;99.90
16038;DHT22;8123;50.906;6.172;2023-10-13T05:34:57;18.50;99.90
16038;DHT22;8123;50.906;6.172;2023-10-13T05:37:41;18.50;99.90
16038;DHT22;8123;50.906;6.172;2023-10-13T05:40:25;18.50;99.90
16038;DHT22;8123;50.906;6.172;2023-10-13T05:43:09;18.50;99.90
16038;DHT22;8123;50.906;6.172;2023-10-13T05:46:00;18.50;99.90
16038;DHT22;8123;50.906;6.172;2023-10-13T05:48:45;18.50;99.90
16038;DHT22;8123;50.906;6.172;2023-10-13T05:54:10;18.50;99.90
16038;DHT22;8123;50.906;6.172;2023-10-13T05:56:48;18.50;99.90
16038;DHT22;8123;50.906;6.172;2023-10-13T05:59:34;18.50;99.90
16038;DHT22;8123;50.906;6.172;2023-10-13T06:02:19;18.50;99.90
16038;DHT22;8123;50.906;6.172;2023-10-13T06:05:09;18.50;99.90
16038;DHT22;8123;50.906;6.172;2023-10-13T06:07:54;18.60;99.90
16038;DHT22;8123;50.906;6.172;2023-10-13T06:10:39;18.60;99.90
16038;DHT22;8123;50.906;6.172;2023-10-13T06:13:24;18.70;99.90
16038;DHT22;8123;50.906;6.172;2023-10-13T06:16:14;18.70;99.90
16038;DHT22;8123;50.906;6.172;2023-10-13T06:18:59;18.80;99.90
16038;DHT22;8123;50.906;6.172;2023-10-13T06:21:44;18.80;99.90
16038;DHT22;8123;50.906;6.172;2023-10-13T06:24:28;19.00;99.90
16038;DHT22;8123;50.906;6.172;2023-10-13T06:27:13;19.00;99.90
16038;DHT22;8123;50.906;6.172;2023-10-13T06:29:57;19.00;99.90
16038;DHT22;8123;50.906;6.172;2023-10-13T06:32:23;19.10;99.90
16038;DHT22;8123;50.906;6.172;2023-10-13T06:34:57;19.20;99.90
16038;DHT22;8123;50.906;6.172;2023-10-13T06:37:27;19.20;99.90
16038;DHT22;8123;50.906;6.172;2023-10-13T06:39:57;19.20;99.90
16038;DHT22;8123;50.906;6.172;2023-10-13T06:42:24;19.20;99.90
16038;DHT22;8123;50.906;6.172;2023-10-13T06:44:56;19.20;99.90
16038;DHT22;8123;50.906;6.172;2023-10-13T06:47:22;19.30;99.90
16038;DHT22;8123;50.906;6.172;2023-10-13T06:49:48;19.30;99.90
16038;DHT22;8123;50.906;6.172;2023-10-13T06:52:19;19.40;99.90
16038;DHT22;8123;50.906;6.172;2023-10-13T06:54:50;19.40;99.90
16038;DHT22;8123;50.906;6.172;2023-10-13T06:57:15;19.40;99.90
16038;DHT22;8123;50.906;6.172;2023-10-13T06:59:46;19.40;99.90
16038;DHT22;8123;50.906;6.172;2023-10-13T07:02:12;19.40;99.90
16038;DHT22;8123;50.906;6.172;2023-10-13T07:04:50;19.40;99.90
16038;DHT22;8123;50.906;6.172;2023-10-13T07:07:32;19.40;99.90
16038;DHT22;8123;50.906;6.172;2023-10-13T07:09:58;19.40;99.90
16038;DHT22;8123;50.906;6.172;2023-10-13T07:12:25;19.50;99.90
16038;DHT22;8123;50.906;6.172;2023-10-13T07:14:58;19.50;90.50
16038;DHT22;8123;50.906;6.172;2023-10-13T07:17:37;19.50;57.60
16038;DHT22;8123;50.906;6.172;2023-10-13T07:20:07;19.50;20.70
16038;DHT22;8123;50.906;6.172;2023-10-13T07:22:43;19.50;29.10
16038;DHT22;8123;50.906;6.172;2023-10-13T07:25:28;19.50;32.70
16038;DHT22;8123;50.906;6.172;2023-10-13T07:28:01;19.50;21.70
16038;DHT22;8123;50.906;6.172;2023-10-13T07:30:30;19.50;37.60
16038;DHT22;8123;50.906;6.172;2023-10-13T07:33:06;19.40;1.00
16038;DHT22;8123;50.906;6.172;2023-10-13T07:35:39;19.50;1.00
16038;DHT22;8123;50.906;6.172;2023-10-13T07:38:08;19.50;1.00
16038;DHT22;8123;50.906;6.172;2023-10-13T07:40:34;19.50;1.00
16038;DHT22;8123;50.906;6.172;2023-10-13T07:43:05;19.50;1.00
16038;DHT22;8123;50.906;6.172;2023-10-13T07:45:39;19.50;1.00
16038;DHT22;8123;50.906;6.172;2023-10-13T07:48:11;19.60;1.00
16038;DHT22;8123;50.906;6.172;2023-10-13T07:50:47;19.50;1.00
16038;DHT22;8123;50.906;6.172;2023-10-13T07:53:14;19.60;1.00
16038;DHT22;8123;50.906;6.172;2023-10-13T07:55:50;19.70;1.00
16038;DHT22;8123;50.906;6.172;2023-10-13T07:58:23;19.70;99.90
16038;DHT22;8123;50.906;6.172;2023-10-13T08:00:52;19.80;99.90
16038;DHT22;8123;50.906;6.172;2023-10-13T08:03:33;19.90;99.90
16038;DHT22;8123;50.906;6.172;2023-10-13T08:06:13;20.00;99.90
16038;DHT22;8123;50.906;6.172;2023-10-13T08:08:45;19.90;27.80
16038;DHT22;8123;50.906;6.172;2023-10-13T08:11:16;20.00;29.20
16038;DHT22;8123;50.906;6.172;2023-10-13T08:14:00;20.10;1.00
16038;DHT22;8123;50.906;6.172;2023-10-13T08:16:48;20.20;99.90
16038;DHT22;8123;50.906;6.172;2023-10-13T08:19:22;20.30;9.50
16038;DHT22;8123;50.906;6.172;2023-10-13T08:21:53;20.30;1.00
16038;DHT22;8123;50.906;6.172;2023-10-13T08:24:26;20.20;1.00
16038;DHT22;8123;50.906;6.172;2023-10-13T08:27:20;20.30;1.00
16038;DHT22;8123;50.906;6.172;2023-10-13T08:30:00;20.30;1.00
16038;DHT22;8123;50.906;6.172;2023-10-13T08:32:30;20.30;99.90
16038;DHT22;8123;50.906;6.172;2023-10-13T08:35:00;20.40;1.00
16038;DHT22;8123;50.906;6.172;2023-10-13T08:37:26;20.50;13.80
16038;DHT22;8123;50.906;6.172;2023-10-13T08:39:57;20.50;99.90
16038;DHT22;8123;50.906;6.172;2023-10-13T08:42:36;20.50;99.90
16038;DHT22;8123;50.906;6.172;2023-10-13T08:45:15;20.60;1.00
16038;DHT22;8123;50.906;6.172;2023-10-13T08:47:58;20.60;99.90
16038;DHT22;8123;50.906;6.172;2023-10-13T08:50:47;20.80;99.90
16038;DHT22;8123;50.906;6.172;2023-10-13T08:53:24;20.70;1.00
16038;DHT22;8123;50.906;6.172;2023-10-13T08:56:07;20.80;1.00
16038;DHT22;8123;50.906;6.172;2023-10-13T08:58:34;20.80;1.00
16038;DHT22;8123;50.906;6.172;2023-10-13T09:01:35;20.90;99.90
16038;DHT22;8123;50.906;6.172;2023-10-13T09:04:19;20.90;1.00
16038;DHT22;8123;50.906;6.172;2023-10-13T09:07:02;21.00;1.00
16038;DHT22;8123;50.906;6.172;2023-10-13T09:09:47;21.00;1.00
16038;DHT22;8123;50.906;6.172;2023-10-13T09:12:23;21.10;99.90
16038;DHT22;8123;50.906;6.172;2023-10-13T09:15:06;21.10;99.90
16038;DHT22;8123;50.906;6.172;2023-10-13T09:17:47;21.20;99.90
16038;DHT22;8123;50.906;6.172;2023-10-13T09:20:31;21.20;99.90
16038;DHT22;8123;50.906;6.172;2023-10-13T09:23:11;21.20;99.90
16038;DHT22;8123;50.906;6.172;2023-10-13T09:25:40;21.30;99.90
16038;DHT22;8123;50.906;6.172;2023-10-13T09:28:38;21.30;99.90
16038;DHT22;8123;50.906;6.172;2023-10-13T09:31:05;21.40;1.00
16038;DHT22;8123;50.906;6.172;2023-10-13T09:33:36;21.50;1.00
16038;DHT22;8123;50.906;6.172;2023-10-13T09:36:03;21.60;1.00
16038;DHT22;8123;50.906;6.172;2023-10-13T09:38:38;21.60;1.00
16038;DHT22;8123;50.906;6.172;2023-10-13T09:41:13;21.50;1.00
16038;DHT22;8123;50.906;6.172;2023-10-13T09:43:52;21.60;1.00
16038;DHT22;8123;50.906;6.172;2023-10-13T09:46:21;21.70;1.00
16038;DHT22;8123;50.906;6.172;2023-10-13T09:48:57;21.70;1.00
16038;DHT22;8123;50.906;6.172;2023-10-13T09:51:40;21.80;1.00
16038;DHT22;8123;50.906;6.172;2023-10-13T09:54:29;21.80;1.00
16038;DHT22;8123;50.906;6.172;2023-10-13T09:57:00;21.80;1.00
16038;DHT22;8123;50.906;6.172;2023-10-13T09:59:35;21.70;1.00
16038;DHT22;8123;50.906;6.172;2023-10-13T10:02:07;21.80;1.00
16038;DHT22;8123;50.906;6.172;2023-10-13T10:04:37;22.00;1.00
16038;DHT22;8123;50.906;6.172;2023-10-13T10:07:28;22.00;1.00
16038;DHT22;8123;50.906;6.172;2023-10-13T10:09:59;22.10;1.00
16038;DHT22;8123;50.906;6.172;2023-10-13T10:15:35;22.10;1.00
16038;DHT22;8123;50.906;6.172;2023-10-13T10:18:22;22.20;99.90
16038;DHT22;8123;50.906;6.172;2023-10-13T10:20:51;22.20;1.00
16038;DHT22;8123;50.906;6.172;2023-10-13T10:23:24;22.20;1.00
16038;DHT22;8123;50.906;6.172;2023-10-13T10:25:52;22.30;99.90
16038;DHT22;8123;50.906;6.172;2023-10-13T10:28:18;22.30;1.00
16038;DHT22;8123;50.906;6.172;2023-10-13T10:30:45;22.40;1.00
16038;DHT22;8123;50.906;6.172;2023-10-13T10:33:12;22.40;99.90
16038;DHT22;8123;50.906;6.172;2023-10-13T10:35:40;22.50;99.90
16038;DHT22;8123;50.906;6.172;2023-10-13T10:38:18;22.60;99.90
16038;DHT22;8123;50.906;6.172;2023-10-13T10:41:00;22.80;99.90
16038;DHT22;8123;50.906;6.172;2023-10-13T10:43:35;23.00;1.00
16038;DHT22;8123;50.906;6.172;2023-10-13T10:46:18;23.10;1.00
16038;DHT22;8123;50.906;6.172;2023-10-13T10:48:50;23.20;14.20
16038;DHT22;8123;50.906;6.172;2023-10-13T10:51:22;23.30;99.90
16038;DHT22;8123;50.906;6.172;2023-10-13T10:53:52;23.30;1.00
16038;DHT22;8123;50.906;6.172;2023-10-13T10:56:22;23.40;1.00
16038;DHT22;8123;50.906;6.172;2023-10-13T10:58:53;23.40;1.00
16038;DHT22;8123;50.906;6.172;2023-10-13T11:01:30;23.40;1.00
16038;DHT22;8123;50.906;6.172;2023-10-13T11:04:03;23.30;1.00
16038;DHT22;8123;50.906;6.172;2023-10-13T11:06:49;23.30;1.00
16038;DHT22;8123;50.906;6.172;2023-10-13T11:09:27;23.20;1.00
16038;DHT22;8123;50.906;6.172;2023-10-13T11:12:12;23.20;1.00
16038;DHT22;8123;50.906;6.172;2023-10-13T11:14:41;23.20;1.00
16038;DHT22;8123;50.906;6.172;2023-10-13T11:17:08;23.20;1.00
16038;DHT22;8123;50.906;6.172;2023-10-13T11:19:46;23.10;29.80
16038;DHT22;8123;50.906;6.172;2023-10-13T11:22:12;23.10;32.70
16038;DHT22;8123;50.906;6.172;2023-10-13T11:24:58;23.10;1.00
16038;DHT22;8123;50.906;6.172;2023-10-13T11:27:35;23.10;1.00
16038;DHT22;8123;50.906;6.172;2023-10-13T11:30:19;23.00;1.00
16038;DHT22;8123;50.906;6.172;2023-10-13T11:32:58;23.00;1.00
16038;DHT22;8123;50.906;6.172;2023-10-13T11:35:25;22.90;1.00
16038;DHT22;8123;50.906;6.172;2023-10-13T11:37:51;22.90;1.00
16038;DHT22;8123;50.906;6.172;2023-10-13T11:40:32;23.00;1.00
16038;DHT22;8123;50.906;6.172;2023-10-13T11:43:10;23.00;1.00
16038;DHT22;8123;50.906;6.172;2023-10-13T11:45:47;22.90;1.00
16038;DHT22;8123;50.906;6.172;2023-10-13T11:48:34;22.90;1.00
16038;DHT22;8123;50.906;6.172;2023-10-13T11:51:02;22.90;1.00
16038;DHT22;8123;50.906;6.172;2023-10-13T11:53:38;22.90;1.00
16038;DHT22;8123;50.906;6.172;2023-10-13T11:56:04;23.00;1.00
16038;DHT22;8123;50.906;6.172;2023-10-13T11:58:37;23.00;1.00
16038;DHT22;8123;50.906;6.172;2023-10-13T12:01:03;22.90;1.00
16038;DHT22;8123;50.906;6.172;2023-10-13T12:03:38;22.90;1.00
16038;DHT22;8123;50.906;6.172;2023-10-13T12:06:23;22.90;1.00
16038;DHT22;8123;50.906;6.172;2023-10-13T12:09:04;23.00;1.00
16038;DHT22;8123;50.906;6.172;2023-10-13T12:11:46;22.90;1.00
16038;DHT22;8123;50.906;6.172;2023-10-13T12:14:14;23.00;1.00
16038;DHT22;8123;50.906;6.172;2023-10-13T12:16:48;23.10;1.00
16038;DHT22;8123;50.906;6.172;2023-10-13T12:19:25;23.20;99.90
16038;DHT22;8123;50.906;6.172;2023-10-13T12:21:53;23.20;99.90
16038;DHT22;8123;50.906;6.172;2023-10-13T12:24:27;23.10;1.00
16038;DHT22;8123;50.906;6.172;2023-10-13T12:27:06;23.20;1.00
16038;DHT22;8123;50.906;6.172;2023-10-13T12:29:50;23.10;1.00
16038;DHT22;8123;50.906;6.172;2023-10-13T12:32:17;23.10;99.90
16038;DHT22;8123;50.906;6.172;2023-10-13T12:34:49;23.10;99.90
16038;DHT22;8123;50.906;6.172;2023-10-13T12:37:30;23.10;99.90
16038;DHT22;8123;50.906;6.172;2023-10-13T12:40:12;23.10;99.90
16038;DHT22;8123;50.906;6.172;2023-10-13T12:42:57;23.10;99.90
16038;DHT22;8123;50.906;6.172;2023-10-13T12:45:43;23.10;99.90
16038;DHT22;8123;50.906;6.172;2023-10-13T12:48:28;23.10;1.00
16038;DHT22;8123;50.906;6.172;2023-10-13T12:51:13;23.00;1.00
16038;DHT22;8123;50.906;6.172;2023-10-13T12:53:57;23.00;1.00
16038;DHT22;8123;50.906;6.172;2023-10-13T12:56:30;23.00;99.90
16038;DHT22;8123;50.906;6.172;2023-10-13T12:58:56;23.10;1.00
16038;DHT22;8123;50.906;6.172;2023-10-13T13:01:23;23.00;99.90
16038;DHT22;8123;50.906;6.172;2023-10-13T13:03:51;23.10;99.90
16038;DHT22;8123;50.906;6.172;2023-10-13T13:06:22;23.00;99.90
16038;DHT22;8123;50.906;6.172;2023-10-13T13:11:17;22.90;99.90
16038;DHT22;8123;50.906;6.172;2023-10-13T13:13:43;22.90;99.90
16038;DHT22;8123;50.906;6.172;2023-10-13T13:16:12;22.80;99.90
16038;DHT22;8123;50.906;6.172;2023-10-13T13:18:37;22.80;99.90
16038;DHT22;8123;50.906;6.172;2023-10-13T13:21:04;22.80;99.90
16038;DHT22;8123;50.906;6.172;2023-10-13T13:23:32;22.80;99.90
16038;DHT22;8123;50.906;6.172;2023-10-13T13:26:00;22.80;99.90
16038;DHT22;8123;50.906;6.172;2023-10-13T13:28:26;22.80;99.90
16038;DHT22;8123;50.906;6.172;2023-10-13T13:30:55;22.70;99.90
16038;DHT22;8123;50.906;6.172;2023-10-13T13:33:20;22.80;99.90
16038;DHT22;8123;50.906;6.172;2023-10-13T13:35:55;22.70;99.90
16038;DHT22;8123;50.906;6.172;2023-10-13T13:38:23;22.70;99.90
16038;DHT22;8123;50.906;6.172;2023-10-13T13:40:53;22.70;99.90
16038;DHT22;8123;50.906;6.172;2023-10-13T13:43:22;22.80;99.90
16038;DHT22;8123;50.906;6.172;2023-10-13T13:46:03;22.70;99.90
16038;DHT22;8123;50.906;6.172;2023-10-13T13:48:37;22.70;99.90
16038;DHT22;8123;50.906;6.172;2023-10-13T13:51:07;22.60;99.90
16038;DHT22;8123;50.906;6.172;2023-10-13T13:53:45;22.60;99.90
16038;DHT22;8123;50.906;6.172;2023-10-13T13:56:14;22.60;99.90
16038;DHT22;8123;50.906;6.172;2023-10-13T13:58:48;22.70;99.90
16038;DHT22;8123;50.906;6.172;2023-10-13T14:01:15;22.60;99.90
16038;DHT22;8123;50.906;6.172;2023-10-13T14:03:44;22.50;99.90
16038;DHT22;8123;50.906;6.172;2023-10-13T14:06:13;22.50;99.90
16038;DHT22;8123;50.906;6.172;2023-10-13T14:08:47;22.50;99.90
16038;DHT22;8123;50.906;6.172;2023-10-13T14:11:36;22.50;99.90
16038;DHT22;8123;50.906;6.172;2023-10-13T14:16:41;22.50;99.90
16038;DHT22;8123;50.906;6.172;2023-10-13T14:19:11;22.40;99.90
16038;DHT22;8123;50.906;6.172;2023-10-13T14:21:37;22.40;99.90
16038;DHT22;8123;50.906;6.172;2023-10-13T14:24:03;22.30;99.90
16038;DHT22;8123;50.906;6.172;2023-10-13T14:26:38;22.30;99.90
16038;DHT22;8123;50.906;6.172;2023-10-13T14:29:03;22.30;99.90
16038;DHT22;8123;50.906;6.172;2023-10-13T14:31:35;22.20;99.90
16038;DHT22;8123;50.906;6.172;2023-10-13T14:34:04;22.20;99.90
16038;DHT22;8123;50.906;6.172;2023-10-13T14:36:30;22.20;99.90
16038;DHT22;8123;50.906;6.172;2023-10-13T14:39:00;22.20;99.90
16038;DHT22;8123;50.906;6.172;2023-10-13T14:41:26;22.20;99.90
16038;DHT22;8123;50.906;6.172;2023-10-13T14:43:52;22.10;99.90
16038;DHT22;8123;50.906;6.172;2023-10-13T14:46:18;22.10;99.90
16038;DHT22;8123;50.906;6.172;2023-10-13T14:48:53;22.10;99.90
16038;DHT22;8123;50.906;6.172;2023-10-13T14:51:19;22.00;99.90
16038;DHT22;8123;50.906;6.172;2023-10-13T14:53:45;21.90;99.90
16038;DHT22;8123;50.906;6.172;2023-10-13T14:56:15;22.00;99.90
16038;DHT22;8123;50.906;6.172;2023-10-13T14:58:42;22.00;99.90
16038;DHT22;8123;50.906;6.172;2023-10-13T15:01:17;21.90;99.90
16038;DHT22;8123;50.906;6.172;2023-10-13T15:03:44;21.90;99.90
16038;DHT22;8123;50.906;6.172;2023-10-13T15:06:18;21.90;99.90
16038;DHT22;8123;50.906;6.172;2023-10-13T15:08:47;22.00;99.90
16038;DHT22;8123;50.906;6.172;2023-10-13T15:11:14;22.00;99.90
16038;DHT22;8123;50.906;6.172;2023-10-13T15:13:43;21.90;99.90
16038;DHT22;8123;50.906;6.172;2023-10-13T15:18:49;21.90;99.90
16038;DHT22;8123;50.906;6.172;2023-10-13T15:21:24;22.00;99.90
16038;DHT22;8123;50.906;6.172;2023-10-13T15:24:16;21.90;1.00
16038;DHT22;8123;50.906;6.172;2023-10-13T15:26:46;21.80;99.90
16038;DHT22;8123;50.906;6.172;2023-10-13T15:29:16;21.90;99.90
16038;DHT22;8123;50.906;6.172;2023-10-13T15:31:50;21.90;99.90
16038;DHT22;8123;50.906;6.172;2023-10-13T15:34:31;21.90;99.90
16038;DHT22;8123;50.906;6.172;2023-10-13T15:36:58;21.80;99.90
16038;DHT22;8123;50.906;6.172;2023-10-13T15:39:25;21.70;1.00
16038;DHT22;8123;50.906;6.172;2023-10-13T15:41:54;21.80;99.90
16038;DHT22;8123;50.906;6.172;2023-10-13T15:44:26;21.70;99.90
16038;DHT22;8123;50.906;6.172;2023-10-13T15:46:56;21.80;99.90
16038;DHT22;8123;50.906;6.172;2023-10-13T15:49:22;21.70;1.00
16038;DHT22;8123;50.906;6.172;2023-10-13T15:51:48;21.60;1.00
16038;DHT22;8123;50.906;6.172;2023-10-13T15:54:14;21.60;1.00
16038;DHT22;8123;50.906;6.172;2023-10-13T15:56:47;21.60;1.00
16038;DHT22;8123;50.906;6.172;2023-10-13T15:59:14;21.60;1.00
16038;DHT22;8123;50.906;6.172;2023-10-13T16:01:40;21.60;1.00
16038;DHT22;8123;50.906;6.172;2023-10-13T16:04:07;21.60;1.00
16038;DHT22;8123;50.906;6.172;2023-10-13T16:06:45;21.60;1.00
16038;DHT22;8123;50.906;6.172;2023-10-13T16:09:19;21.60;1.00
16038;DHT22;8123;50.906;6.172;2023-10-13T16:11:52;21.60;1.00
16038;DHT22;8123;50.906;6.172;2023-10-13T16:14:18;21.50;1.00
16038;DHT22;8123;50.906;6.172;2023-10-13T16:16:48;21.40;1.00
16038;DHT22;8123;50.906;6.172;2023-10-13T16:19:15;21.50;1.00
16038;DHT22;8123;50.906;6.172;2023-10-13T16:21:47;21.60;1.00
16038;DHT22;8123;50.906;6.172;2023-10-13T16:24:13;21.50;1.00
16038;DHT22;8123;50.906;6.172;2023-10-13T16:26:46;21.50;1.00
16038;DHT22;8123;50.906;6.172;2023-10-13T16:29:18;21.40;1.00
16038;DHT22;8123;50.906;6.172;2023-10-13T16:31:44;21.40;1.00
16038;DHT22;8123;50.906;6.172;2023-10-13T16:34:14;21.50;1.00
16038;DHT22;8123;50.906;6.172;2023-10-13T16:36:41;21.40;1.00
16038;DHT22;8123;50.906;6.172;2023-10-13T16:39:09;21.40;1.00
16038;DHT22;8123;50.906;6.172;2023-10-13T16:41:35;21.40;1.00
16038;DHT22;8123;50.906;6.172;2023-10-13T16:44:00;21.30;1.00
16038;DHT22;8123;50.906;6.172;2023-10-13T16:46:32;21.40;1.00